createdAt,value
2022-08-03T00:00:57.561Z,2.00
2022-08-03T00:03:46.649Z,1.48
2022-08-03T00:06:39.866Z,1.70
2022-08-03T00:09:28.432Z,1.48
2022-08-03T00:12:24.385Z,2.03
2022-08-03T00:15:16.789Z,1.40
2022-08-03T00:18:05.711Z,1.45
2022-08-03T00:20:54.164Z,1.90
2022-08-03T00:23:51.427Z,1.55
2022-08-03T00:26:41.122Z,1.58
2022-08-03T00:29:29.645Z,1.70
2022-08-03T00:32:24.156Z,1.77
2022-08-03T00:35:36.388Z,1.80
2022-08-03T00:38:22.333Z,1.25
2022-08-03T00:41:12.225Z,1.23
2022-08-03T00:44:04.457Z,2.05
2022-08-03T00:46:52.919Z,1.73
2022-08-03T00:49:42.241Z,2.03
2022-08-03T00:52:30.889Z,2.08
2022-08-03T00:55:19.420Z,1.88
2022-08-03T00:58:11.214Z,1.52
2022-08-03T01:01:00.107Z,1.70
2022-08-03T01:03:48.728Z,1.65
2022-08-03T01:06:42.942Z,1.55
2022-08-03T01:09:38.150Z,1.30
2022-08-03T01:12:33.023Z,1.60
2022-08-03T01:15:27.347Z,1.25
2022-08-03T01:18:19.840Z,1.50
2022-08-03T01:21:14.410Z,1.83
2022-08-03T01:24:10.463Z,1.70
2022-08-03T01:27:07.047Z,1.77
2022-08-03T01:30:02.092Z,1.50
2022-08-03T01:33:01.435Z,1.88
2022-08-03T01:35:54.533Z,1.60
2022-08-03T01:38:45.500Z,2.00
2022-08-03T01:41:38.959Z,1.67
2022-08-03T01:44:31.044Z,1.80
2022-08-03T01:47:22.829Z,1.95
2022-08-03T01:50:14.269Z,1.67
2022-08-03T01:53:03.793Z,1.55
2022-08-03T01:55:56.056Z,1.48
2022-08-03T01:58:45.862Z,1.98
2022-08-03T02:02:28.907Z,1.98
2022-08-03T02:04:46.152Z,2.00
2022-08-03T02:07:35.067Z,1.88
2022-08-03T02:10:34.711Z,2.30
2022-08-03T02:13:25.155Z,1.77
2022-08-03T02:16:15.291Z,1.80
2022-08-03T02:19:06.422Z,1.92
2022-08-03T02:22:01.305Z,2.08
2022-08-03T02:24:51.326Z,2.05
2022-08-03T02:27:43.606Z,2.33
2022-08-03T02:30:38.594Z,2.30
2022-08-03T02:33:30.177Z,2.08
2022-08-03T02:36:21.913Z,2.20
2022-08-03T02:39:15.546Z,2.03
2022-08-03T02:42:05.437Z,2.10
2022-08-03T02:44:57.115Z,2.03
2022-08-03T02:47:54.279Z,2.25
2022-08-03T02:50:44.437Z,2.75
2022-08-03T02:53:33.586Z,2.58
2022-08-03T02:56:24.137Z,1.92
2022-08-03T02:59:14.434Z,2.28
2022-08-03T03:02:04.201Z,2.25
2022-08-03T03:05:51.159Z,2.80
2022-08-03T03:08:03.748Z,2.72
2022-08-03T03:11:06.400Z,2.53
2022-08-03T03:13:57.783Z,2.65
2022-08-03T03:16:47.109Z,2.53
2022-08-03T03:19:41.720Z,2.42
2022-08-03T03:22:31.134Z,2.50
2022-08-03T03:25:20.114Z,3.20
2022-08-03T03:28:08.685Z,2.17
2022-08-03T03:30:58.754Z,2.22
2022-08-03T03:33:47.700Z,2.42
2022-08-03T03:36:37.414Z,2.10
2022-08-03T03:39:26.002Z,2.75
2022-08-03T03:42:14.928Z,2.78
2022-08-03T03:45:05.850Z,2.72
2022-08-03T03:47:55.709Z,3.03
2022-08-03T03:50:45.502Z,2.80
2022-08-03T03:53:34.040Z,2.25
2022-08-03T03:56:22.602Z,2.35
2022-08-03T03:59:11.148Z,2.70
2022-08-03T04:02:02.394Z,3.28
2022-08-03T04:05:10.234Z,3.33
2022-08-03T04:08:18.635Z,3.42
2022-08-03T04:11:13.617Z,3.15
2022-08-03T04:14:05.352Z,3.03
2022-08-03T04:16:57.151Z,3.13
2022-08-03T04:19:48.815Z,2.90
2022-08-03T04:22:39.780Z,2.38
2022-08-03T04:25:31.741Z,3.05
2022-08-03T04:28:30.740Z,3.17
2022-08-03T04:31:22.632Z,3.15
2022-08-03T04:34:12.305Z,2.70
2022-08-03T04:37:03.045Z,3.60
2022-08-03T04:39:53.587Z,2.80
2022-08-03T04:42:46.796Z,3.58
2022-08-03T04:45:35.870Z,3.67
2022-08-03T04:48:24.779Z,3.75
2022-08-03T04:51:15.917Z,3.65
2022-08-03T04:54:07.222Z,3.53
2022-08-03T04:56:57.142Z,3.80
2022-08-03T04:59:45.651Z,3.95
2022-08-03T05:02:35.050Z,3.20
2022-08-03T05:05:26.278Z,3.22
2022-08-03T05:08:34.750Z,3.92
2022-08-03T05:11:23.424Z,2.90
2022-08-03T05:14:13.404Z,3.22
2022-08-03T05:17:01.907Z,3.10
2022-08-03T05:19:50.706Z,2.70
2022-08-03T05:22:39.274Z,3.13
2022-08-03T05:25:27.954Z,3.85
2022-08-03T05:28:16.485Z,2.88
2022-08-03T05:31:08.491Z,2.60
2022-08-03T05:33:58.651Z,2.40
2022-08-03T05:36:47.165Z,2.33
2022-08-03T05:39:36.254Z,2.75
2022-08-03T05:42:27.856Z,2.72
2022-08-03T05:45:17.950Z,2.13
2022-08-03T05:48:10.517Z,2.38
2022-08-03T05:50:59.105Z,2.05
2022-08-03T05:53:47.684Z,2.38
2022-08-03T05:56:36.218Z,1.63
2022-08-03T05:59:38.235Z,1.90
2022-08-03T06:02:27.549Z,2.50
2022-08-03T06:05:17.540Z,2.25
2022-08-03T06:08:06.713Z,1.98
2022-08-03T06:10:55.199Z,1.92
2022-08-03T06:13:44.242Z,2.08
2022-08-03T06:16:33.802Z,1.45
2022-08-03T06:19:23.208Z,1.90
2022-08-03T06:22:14.030Z,2.00
2022-08-03T06:25:04.019Z,1.63
2022-08-03T06:27:53.799Z,1.35
2022-08-03T06:30:42.884Z,1.45
2022-08-03T06:34:30.603Z,1.50
2022-08-03T06:36:40.061Z,1.50
2022-08-03T06:39:30.107Z,1.50
2022-08-03T06:42:18.762Z,1.27
2022-08-03T06:45:10.483Z,1.27
2022-08-03T06:48:02.876Z,1.45
2022-08-03T06:50:51.400Z,1.20
2022-08-03T06:53:39.993Z,1.40
2022-08-03T06:56:29.898Z,1.38
2022-08-03T07:00:07.917Z,1.92
2022-08-03T07:02:28.167Z,2.15
2022-08-03T07:05:17.319Z,1.55
2022-08-03T07:08:06.224Z,1.23
2022-08-03T07:10:54.878Z,1.45
2022-08-03T07:13:44.694Z,1.48
2022-08-03T07:16:33.208Z,2.03
2022-08-03T07:19:21.627Z,1.30
2022-08-03T07:22:11.295Z,1.35
2022-08-03T07:25:00.064Z,1.40
2022-08-03T07:27:52.113Z,1.85
2022-08-03T07:30:42.074Z,1.67
2022-08-03T07:33:30.600Z,1.48
2022-08-03T07:36:19.097Z,1.70
2022-08-03T07:39:16.558Z,1.42
2022-08-03T07:42:06.733Z,1.42
2022-08-03T07:44:57.634Z,1.92
2022-08-03T07:47:53.316Z,1.10
2022-08-03T07:50:42.472Z,1.33
2022-08-03T07:53:31.355Z,1.17
2022-08-03T07:56:23.224Z,1.63
2022-08-03T07:59:11.793Z,1.50
2022-08-03T08:02:00.318Z,1.25
2022-08-03T08:04:50.390Z,0.90
2022-08-03T08:07:39.212Z,1.30
2022-08-03T08:10:27.856Z,1.67
2022-08-03T08:13:16.712Z,1.23
2022-08-03T08:16:05.624Z,1.63
2022-08-03T08:18:54.095Z,1.23
2022-08-03T08:21:53.714Z,1.02
2022-08-03T08:24:51.317Z,1.00
2022-08-03T08:28:29.184Z,1.10
2022-08-03T08:30:54.090Z,1.42
2022-08-03T08:34:03.071Z,1.00
2022-08-03T08:36:52.536Z,0.98
2022-08-03T08:39:41.011Z,0.98
2022-08-03T08:42:29.522Z,0.80
2022-08-03T08:45:19.355Z,0.90
2022-08-03T08:48:09.315Z,1.05
2022-08-03T08:50:58.587Z,0.93
2022-08-03T08:53:51.198Z,1.00
2022-08-03T08:56:39.793Z,0.88
2022-08-03T08:59:48.534Z,0.93
2022-08-03T09:02:38.282Z,1.13
2022-08-03T09:05:54.639Z,0.90
2022-08-03T09:08:35.697Z,0.70
2022-08-03T09:12:00.475Z,0.75
2022-08-03T09:14:36.540Z,1.05
2022-08-03T09:17:41.766Z,0.63
2022-08-03T09:20:31.801Z,0.70
2022-08-03T09:23:59.290Z,0.80
2022-08-03T09:26:31.619Z,0.85
2022-08-03T09:29:23.388Z,0.75
2022-08-03T09:32:12.662Z,0.57
2022-08-03T09:35:06.197Z,0.60
2022-08-03T09:38:17.308Z,0.63
2022-08-03T09:41:19.344Z,0.90
2022-08-03T09:44:25.296Z,0.80
2022-08-03T09:47:16.296Z,0.80
2022-08-03T09:50:07.267Z,1.00
2022-08-03T09:52:55.816Z,0.65
2022-08-03T09:56:35.294Z,0.50
2022-08-03T09:59:01.038Z,0.85
2022-08-03T10:01:50.956Z,0.77
2022-08-03T10:04:50.927Z,0.63
2022-08-03T10:07:46.578Z,0.82
2022-08-03T10:10:43.581Z,0.47
2022-08-03T10:13:32.438Z,0.77
2022-08-03T10:16:25.595Z,0.60
2022-08-03T10:19:16.124Z,0.77
2022-08-03T10:22:08.524Z,0.77
2022-08-03T10:24:58.635Z,0.63
2022-08-03T10:27:49.556Z,0.50
2022-08-03T10:30:38.959Z,0.60
2022-08-03T10:33:49.729Z,0.55
2022-08-03T10:36:42.357Z,0.50
2022-08-03T10:39:31.850Z,0.90
2022-08-03T10:42:25.037Z,0.50
2022-08-03T10:45:20.864Z,0.40
2022-08-03T10:48:09.680Z,0.60
2022-08-03T10:51:00.481Z,0.70
2022-08-03T10:53:54.606Z,0.45
2022-08-03T10:57:01.859Z,0.30
2022-08-03T11:00:06.224Z,0.45
2022-08-03T11:03:10.891Z,0.63
2022-08-03T11:06:18.982Z,0.32
2022-08-03T11:09:19.585Z,0.30
2022-08-03T11:12:30.393Z,0.32
2022-08-03T11:15:33.825Z,0.32
2022-08-03T11:18:22.561Z,0.30
2022-08-03T11:21:15.669Z,0.28
2022-08-03T11:24:06.683Z,0.52
2022-08-03T11:27:18.484Z,0.20
2022-08-03T11:30:08.877Z,0.30
2022-08-03T11:33:01.369Z,0.40
2022-08-03T11:36:00.646Z,0.30
2022-08-03T11:39:16.693Z,0.40
2022-08-03T11:42:39.259Z,0.40
2022-08-03T11:45:29.477Z,0.60
2022-08-03T11:48:18.579Z,0.40
2022-08-03T11:51:08.839Z,0.30
2022-08-03T11:53:58.954Z,0.38
2022-08-03T11:56:49.620Z,0.30
2022-08-03T11:59:39.452Z,0.30
2022-08-03T12:02:29.321Z,0.25
2022-08-03T12:05:18.995Z,0.30
2022-08-03T12:08:07.854Z,0.20
2022-08-03T12:10:57.898Z,0.22
2022-08-03T12:14:44.393Z,0.38
2022-08-03T12:16:56.556Z,0.70
2022-08-03T12:19:46.519Z,0.30
2022-08-03T12:22:35.586Z,0.30
2022-08-03T12:25:39.523Z,0.20
2022-08-03T12:28:36.782Z,0.20
2022-08-03T12:31:26.880Z,0.22
2022-08-03T12:34:15.541Z,0.20
2022-08-03T12:37:21.940Z,0.20
2022-08-03T12:40:17.803Z,0.30
2022-08-03T12:43:16.558Z,0.20
2022-08-03T12:46:12.921Z,0.20
2022-08-03T12:49:06.943Z,0.10
2022-08-03T12:52:05.362Z,0.15
2022-08-03T12:55:01.188Z,0.15
2022-08-03T12:57:50.170Z,0.10
2022-08-03T13:00:40.344Z,0.20
2022-08-03T13:03:39.570Z,0.30
2022-08-03T13:06:31.223Z,0.20
2022-08-03T13:09:19.715Z,0.20
2022-08-03T13:12:12.703Z,0.20
2022-08-03T13:15:02.012Z,0.17
2022-08-03T13:17:50.581Z,0.10
2022-08-03T13:20:39.341Z,0.20
2022-08-03T13:23:27.832Z,0.20
2022-08-03T13:26:16.467Z,0.20
2022-08-03T13:29:07.500Z,0.28
2022-08-03T13:31:55.996Z,0.20
2022-08-03T13:34:44.485Z,0.10
2022-08-03T13:37:33.529Z,0.20
2022-08-03T13:40:23.689Z,0.20
2022-08-03T13:43:18.746Z,0.10
2022-08-03T13:46:08.575Z,0.10
2022-08-03T13:48:57.148Z,0.13
2022-08-03T13:51:45.627Z,0.22
2022-08-03T13:54:34.123Z,0.10
2022-08-03T13:58:04.084Z,0.40
2022-08-03T14:00:31.324Z,0.30
2022-08-03T14:03:24.193Z,0.30
2022-08-03T14:06:12.796Z,0.30
2022-08-03T14:09:01.663Z,0.15
2022-08-03T14:12:04.050Z,0.10
2022-08-03T14:15:01.126Z,0.10
2022-08-03T14:17:50.307Z,0.25
2022-08-03T14:20:50.247Z,0.28
2022-08-03T14:23:42.943Z,0.20
2022-08-03T14:26:33.254Z,1.60
2022-08-03T14:29:21.747Z,3.72
2022-08-03T14:32:13.176Z,2.03
2022-08-03T14:35:02.078Z,4.53
2022-08-03T14:37:51.953Z,1.55
2022-08-03T14:40:40.515Z,5.28
2022-08-03T14:43:34.168Z,2.38
2022-08-03T14:46:22.902Z,1.83
2022-08-03T14:50:31.211Z,5.00
2022-08-03T14:52:19.829Z,2.00
2022-08-03T14:55:10.589Z,1.38
2022-08-03T14:58:00.064Z,2.22
2022-08-03T15:00:48.609Z,1.40
2022-08-03T15:03:37.126Z,1.30
2022-08-03T15:06:27.119Z,1.48
2022-08-03T15:09:23.553Z,1.23
2022-08-03T15:12:14.152Z,1.00
2022-08-03T15:15:02.696Z,0.65
2022-08-03T15:18:00.157Z,1.38
2022-08-03T15:20:50.575Z,0.93
2022-08-03T15:23:39.152Z,1.27
2022-08-03T15:26:32.964Z,0.88
2022-08-03T15:30:05.573Z,0.80
2022-08-03T15:32:36.166Z,0.60
2022-08-03T15:35:24.845Z,0.90
2022-08-03T15:38:13.373Z,0.98
2022-08-03T15:41:01.922Z,0.55
2022-08-03T15:43:52.767Z,0.45
2022-08-03T15:46:42.654Z,0.63
2022-08-03T15:49:31.215Z,0.40
2022-08-03T15:52:21.475Z,0.60
2022-08-03T15:55:11.117Z,0.50
2022-08-03T15:59:09.397Z,0.47
2022-08-03T16:01:19.422Z,0.38
2022-08-03T16:04:09.739Z,0.57
2022-08-03T16:06:58.223Z,0.28
2022-08-03T16:09:46.702Z,0.75
2022-08-03T16:12:35.230Z,0.60
2022-08-03T16:15:23.865Z,0.43
2022-08-03T16:18:12.327Z,0.22
2022-08-03T16:21:02.222Z,0.68
2022-08-03T16:23:50.843Z,0.30
2022-08-03T16:26:39.758Z,0.30
2022-08-03T16:29:28.276Z,0.30
2022-08-03T16:32:17.272Z,0.50
2022-08-03T16:35:06.251Z,0.40
2022-08-03T16:37:57.044Z,0.77
2022-08-03T16:40:45.776Z,0.20
2022-08-03T16:43:35.709Z,0.45
2022-08-03T16:46:24.457Z,0.40
2022-08-03T16:49:13.643Z,0.32
2022-08-03T16:52:22.904Z,0.68
2022-08-03T16:55:15.672Z,0.63
2022-08-03T16:58:07.513Z,0.50
2022-08-03T17:00:57.242Z,0.40
2022-08-03T17:03:57.230Z,0.60
2022-08-03T17:06:51.498Z,0.30
2022-08-03T17:09:40.080Z,0.40
2022-08-03T17:12:30.299Z,0.43
2022-08-03T17:15:20.008Z,0.75
2022-08-03T17:18:29.761Z,0.70
2022-08-03T17:21:19.389Z,0.30
2022-08-03T17:24:12.280Z,0.40
2022-08-03T17:27:03.542Z,0.43
2022-08-03T17:30:02.755Z,0.45
2022-08-03T17:32:57.686Z,0.40
2022-08-03T17:35:52.783Z,0.30
2022-08-03T17:38:45.201Z,0.25
2022-08-03T17:41:35.094Z,0.40
2022-08-03T17:44:33.072Z,0.30
2022-08-03T17:47:41.906Z,0.40
2022-08-03T17:50:40.398Z,0.50
2022-08-03T17:53:31.708Z,0.40
2022-08-03T17:56:40.812Z,0.30
2022-08-03T17:59:52.422Z,0.52
2022-08-03T18:03:05.296Z,0.20
2022-08-03T18:06:11.304Z,0.43
2022-08-03T18:10:11.608Z,0.75
2022-08-03T18:12:15.434Z,0.38
2022-08-03T18:15:08.600Z,0.20
2022-08-03T18:18:10.259Z,0.20
2022-08-03T18:21:04.713Z,0.20
2022-08-03T18:23:56.934Z,0.40
2022-08-03T18:26:50.349Z,0.40
2022-08-03T18:29:39.158Z,0.30
2022-08-03T18:32:28.062Z,0.63
2022-08-03T18:35:19.564Z,0.25
2022-08-03T18:38:16.780Z,0.50
2022-08-03T18:41:14.078Z,0.30
2022-08-03T18:44:37.540Z,0.63
2022-08-03T18:47:50.641Z,0.47
2022-08-03T18:50:46.446Z,0.47
2022-08-03T18:54:02.631Z,0.57
2022-08-03T18:56:54.826Z,0.90
2022-08-03T18:59:48.466Z,1.27
2022-08-03T19:02:49.069Z,1.15
2022-08-03T19:06:02.462Z,1.50
2022-08-03T19:08:57.453Z,1.13
2022-08-03T19:12:13.337Z,1.00
2022-08-03T19:15:03.140Z,0.93
2022-08-03T19:17:55.287Z,1.40
2022-08-03T19:20:46.753Z,1.58
2022-08-03T19:23:36.697Z,1.33
2022-08-03T19:26:30.255Z,1.30
2022-08-03T19:29:22.365Z,1.52
2022-08-03T19:32:11.467Z,1.35
2022-08-03T19:35:01.782Z,1.42
2022-08-03T19:37:51.834Z,1.25
2022-08-03T19:40:43.676Z,0.98
2022-08-03T19:43:52.480Z,1.42
2022-08-03T19:46:56.062Z,1.40
2022-08-03T19:49:57.764Z,1.73
2022-08-03T19:52:57.773Z,1.23
2022-08-03T19:55:48.956Z,1.38
2022-08-03T19:58:56.569Z,1.60
2022-08-03T20:01:50.556Z,1.60
2022-08-03T20:04:40.189Z,1.63
2022-08-03T20:07:32.759Z,1.67
2022-08-03T20:10:23.068Z,1.30
2022-08-03T20:13:11.721Z,1.35
2022-08-03T20:16:09.365Z,1.63
2022-08-03T20:19:00.592Z,1.60
2022-08-03T20:21:51.779Z,1.42
2022-08-03T20:24:42.713Z,1.23
2022-08-03T20:30:49.050Z,1.92
2022-08-03T20:33:46.266Z,2.55
2022-08-03T20:36:38.115Z,2.85
2022-08-03T20:39:26.973Z,2.30
2022-08-03T20:42:21.152Z,2.05
2022-08-03T20:45:59.125Z,2.60
2022-08-03T20:48:22.766Z,2.10
2022-08-03T20:51:19.943Z,2.53
2022-08-03T20:54:29.324Z,2.50
2022-08-03T20:57:21.209Z,2.53
2022-08-03T21:00:16.654Z,3.58
2022-08-03T21:03:06.780Z,3.20
2022-08-03T21:05:59.243Z,3.55
2022-08-03T21:08:55.873Z,2.60
2022-08-03T21:11:45.658Z,3.17
2022-08-03T21:13:06.881Z,1.67
2022-08-03T21:14:40.112Z,3.63
2022-08-03T21:17:40.600Z,3.08
2022-08-03T21:20:33.602Z,2.53
2022-08-03T21:23:40.058Z,2.92
2022-08-03T21:26:34.981Z,2.35
2022-08-03T21:29:23.945Z,2.60
2022-08-03T21:32:19.123Z,2.78
2022-08-03T21:35:24.059Z,3.05
2022-08-03T21:38:29.915Z,2.53
2022-08-03T21:41:18.773Z,2.83
2022-08-03T21:44:08.147Z,2.97
2022-08-03T21:46:56.909Z,3.50
2022-08-03T21:50:07.931Z,3.88
2022-08-03T21:52:58.450Z,3.10
2022-08-03T21:55:54.052Z,3.53
2022-08-03T21:58:52.447Z,3.92
2022-08-03T22:01:43.108Z,3.25
2022-08-03T22:04:53.135Z,4.15
2022-08-03T22:07:43.386Z,4.03
2022-08-03T22:10:33.620Z,4.18
2022-08-03T22:13:43.878Z,3.72
2022-08-03T22:16:31.296Z,4.00
2022-08-03T22:19:22.272Z,3.35
2022-08-03T22:22:13.855Z,3.53
2022-08-03T22:25:06.385Z,3.60
2022-08-03T22:28:01.052Z,3.15
2022-08-03T22:30:49.958Z,2.83
2022-08-03T22:33:38.647Z,3.05
2022-08-03T22:36:27.311Z,3.28
2022-08-03T22:39:25.663Z,2.40
2022-08-03T22:42:16.128Z,2.35
2022-08-03T22:45:08.044Z,2.67
2022-08-03T22:47:57.229Z,2.40
2022-08-03T22:50:46.405Z,2.90
2022-08-03T22:53:35.339Z,1.83
2022-08-03T22:56:24.120Z,2.20
2022-08-03T22:59:40.699Z,2.13
2022-08-03T23:02:23.176Z,1.85
2022-08-03T23:06:02.457Z,2.60
2022-08-03T23:08:26.590Z,2.03
2022-08-03T23:11:17.397Z,2.28
2022-08-03T23:14:09.014Z,2.13
2022-08-03T23:16:58.219Z,2.42
2022-08-03T23:19:48.130Z,2.35
2022-08-03T23:22:38.248Z,2.08
2022-08-03T23:25:31.734Z,2.30
2022-08-03T23:28:20.422Z,2.65
2022-08-03T23:31:10.423Z,2.55
2022-08-03T23:34:16.684Z,2.67
2022-08-03T23:37:07.184Z,2.28
2022-08-03T23:39:56.550Z,2.45
2022-08-03T23:42:45.392Z,1.90
2022-08-03T23:45:36.751Z,2.75
2022-08-03T23:48:25.366Z,2.60
2022-08-03T23:51:19.378Z,2.28
2022-08-03T23:54:24.869Z,2.72
2022-08-03T23:57:20.846Z,2.42
